Time;durP1;ratioP1;P1;durP2;ratioP2;P2;SDS_P1;SDS_P2;PMS_P1;PMS_P2;Temp;Humidity;BMP_temperature;BMP_pressure;BME280_temperature;BME280_humidity;BME280_pressure;Samples;Min_cycle;Max_cycle;Signal;HPM_P1;HPM_P2
2022/08/02 00:09:09;;;;;;;1.80;0.88;;;;;;;19.07;85.33;101621.41;20939163;28;20052;-77
2022/08/02 00:19:10;;;;;;;1.38;0.82;;;;;;;19.20;85.40;101626.63;20930841;28;20505;-77
2022/08/02 00:29:12;;;;;;;0.80;0.80;;;;;;;19.19;85.23;101624.91;20931979;28;20493;-77
2022/08/02 00:39:14;;;;;;;1.20;0.85;;;;;;;19.17;84.76;101633.13;20927408;28;20072;-77
2022/08/02 00:49:36;;;;;;;1.67;0.98;;;;;;;19.17;84.83;101622.34;20927262;28;20121;-76
2022/08/02 00:59:37;;;;;;;1.90;1.10;;;;;;;19.17;84.70;101610.69;20929758;28;20040;-77
2022/08/02 01:09:45;;;;;;;1.33;1.00;;;;;;;19.16;84.38;101623.34;20927184;28;20040;-77
2022/08/02 01:19:59;;;;;;;1.85;0.95;;;;;;;19.15;84.07;101599.16;20937906;28;20060;-77
2022/08/02 01:30:02;;;;;;;1.02;0.90;;;;;;;19.17;84.12;101605.28;20921944;28;20040;-77
2022/08/02 01:40:07;;;;;;;1.17;1.00;;;;;;;19.15;83.94;101600.03;20916918;28;20504;-76
2022/08/02 01:50:12;;;;;;;1.52;0.85;;;;;;;19.07;83.60;101575.53;20922952;28;20044;-76
2022/08/02 02:00:14;;;;;;;0.98;0.80;;;;;;;19.13;83.37;101583.09;20917386;28;20056;-77
2022/08/02 02:10:21;;;;;;;1.40;0.90;;;;;;;19.13;83.31;101580.41;20928794;28;20055;-77
2022/08/02 02:20:23;;;;;;;1.83;0.85;;;;;;;18.90;83.05;101533.72;20898644;28;20049;-77
2022/08/02 02:30:26;;;;;;;1.90;0.88;;;;;;;19.05;82.91;101556.75;20913376;28;20460;-77
2022/08/02 02:40:28;;;;;;;1.77;0.95;;;;;;;18.95;82.89;101524.22;20887328;28;20064;-76
2022/08/02 02:50:30;;;;;;;2.38;1.00;;;;;;;19.13;82.89;101534.53;20895899;28;20059;-76
2022/08/02 03:10:52;;;;;;;2.60;1.10;;;;;;;19.19;82.60;101512.41;20905428;28;20412;-75
2022/08/02 03:20:58;;;;;;;2.60;1.15;;;;;;;19.22;82.52;101522.94;20915588;28;20048;-75
2022/08/02 03:31:00;;;;;;;2.88;1.10;;;;;;;19.23;82.18;101510.31;20951959;28;20049;-75
2022/08/02 03:41:03;;;;;;;4.00;1.40;;;;;;;19.22;81.91;101495.94;20939945;28;20090;-75
2022/08/02 03:51:05;;;;;;;1.55;0.93;;;;;;;19.22;81.31;101501.34;20946830;28;20051;-75
2022/08/02 04:01:07;;;;;;;2.75;1.15;;;;;;;19.23;80.96;101486.88;20928309;28;20058;-75
2022/08/02 04:21:34;;;;;;;1.35;1.10;;;;;;;19.23;80.51;101486.88;20915903;28;20063;-75
2022/08/02 04:31:53;;;;;;;2.20;1.10;;;;;;;19.23;80.41;101470.66;20923839;28;20091;-75
2022/08/02 04:41:54;;;;;;;1.60;0.88;;;;;;;19.15;80.17;101469.59;20912761;28;20044;-75
2022/08/02 04:51:59;;;;;;;2.30;1.05;;;;;;;19.21;80.18;101494.25;20916512;28;20052;-75
2022/08/02 05:02:01;;;;;;;1.75;1.05;;;;;;;19.25;79.82;101489.44;20913107;28;20052;-75
2022/08/02 05:12:03;;;;;;;1.50;0.80;;;;;;;19.24;79.80;101466.97;20915161;28;20052;-75
2022/08/02 05:22:04;;;;;;;1.55;1.17;;;;;;;19.05;79.84;101440.69;20913062;28;20075;-75
2022/08/02 05:32:06;;;;;;;2.45;1.27;;;;;;;19.25;79.56;101481.34;20911416;28;20059;-75
2022/08/02 05:42:08;;;;;;;1.08;0.80;;;;;;;19.25;79.41;101479.47;20906045;28;20080;-75
2022/08/02 05:52:17;;;;;;;1.90;1.00;;;;;;;19.25;80.39;101465.16;20909334;28;20052;-76
2022/08/02 06:02:29;;;;;;;2.20;0.95;;;;;;;19.28;80.48;101473.81;20906087;28;20571;-76
2022/08/02 06:12:32;;;;;;;2.72;1.10;;;;;;;19.31;79.98;101472.72;20900505;28;21015;-76
2022/08/02 06:22:34;;;;;;;2.78;1.02;;;;;;;19.34;80.04;101468.88;20901519;28;20129;-76
2022/08/02 06:32:38;;;;;;;1.03;0.93;;;;;;;19.35;80.13;101474.16;20909106;28;20448;-76
2022/08/02 06:42:42;;;;;;;1.45;0.90;;;;;;;19.37;80.20;101461.38;20911283;28;20131;-76
2022/08/02 06:52:44;;;;;;;2.37;1.07;;;;;;;19.39;80.42;101453.13;20892255;28;20056;-77
2022/08/02 07:02:46;;;;;;;2.38;1.20;;;;;;;19.39;81.27;101447.75;20919974;28;20041;-76
2022/08/02 07:12:47;;;;;;;2.97;1.33;;;;;;;19.44;85.50;101450.06;20897892;28;20059;-76
2022/08/02 07:22:49;;;;;;;4.72;1.75;;;;;;;19.47;89.76;101429.06;20907513;28;20056;-77
2022/08/02 07:32:50;;;;;;;7.15;2.38;;;;;;;19.31;97.27;101394.44;20906802;28;20055;-77
2022/08/02 07:42:53;;;;;;;3.15;1.70;;;;;;;19.36;97.71;101385.91;20921046;28;20051;-76
2022/08/02 07:53:03;;;;;;;3.35;1.60;;;;;;;19.57;96.29;101402.06;20911523;28;20048;-76
2022/08/02 08:03:05;;;;;;;3.72;1.70;;;;;;;19.60;94.70;101400.97;20928989;28;20076;-77
2022/08/02 08:13:06;;;;;;;1.77;1.20;;;;;;;19.58;92.95;101381.34;20928150;28;20421;-77
2022/08/02 08:23:08;;;;;;;2.75;1.55;;;;;;;19.64;91.64;101399.69;20925933;28;20456;-77
2022/08/02 08:33:09;;;;;;;2.47;1.38;;;;;;;19.50;90.29;101363.97;20938005;28;20049;-77
2022/08/02 08:43:12;;;;;;;2.65;1.13;;;;;;;19.61;89.00;101343.25;20929816;28;20075;-77
2022/08/02 08:53:15;;;;;;;2.20;1.08;;;;;;;19.68;88.47;101350.69;20937925;28;20078;-77
2022/08/02 09:03:20;;;;;;;1.67;1.23;;;;;;;19.68;87.94;101345.28;20914357;28;20071;-77
2022/08/02 09:13:29;;;;;;;2.08;0.90;;;;;;;19.68;87.41;101363.31;20927248;28;20052;-76
2022/08/02 09:23:48;;;;;;;1.83;0.88;;;;;;;19.68;86.82;101349.81;20908706;28;20477;-76
2022/08/02 09:33:58;;;;;;;2.10;0.90;;;;;;;19.60;86.11;101322.63;20909650;28;20079;-76
2022/08/02 09:44:01;;;;;;;2.70;0.80;;;;;;;19.61;85.74;101317.09;20933651;28;20291;-77
2022/08/02 09:54:10;;;;;;;1.73;0.90;;;;;;;19.67;85.19;101330.06;20904710;28;20067;-77
2022/08/02 10:04:13;;;;;;;1.73;0.80;;;;;;;19.67;84.71;101321.09;20913749;28;20056;-76
2022/08/02 10:14:23;;;;;;;1.45;0.70;;;;;;;19.66;84.90;101319.38;20901870;28;20062;-76
2022/08/02 10:24:30;;;;;;;1.38;0.90;;;;;;;19.67;84.56;101323.78;20902130;28;20156;-76
2022/08/02 10:35:03;;;;;;;1.13;0.90;;;;;;;19.66;84.50;101309.41;20914095;28;20082;-77
2022/08/02 10:45:24;;;;;;;1.55;0.95;;;;;;;19.67;84.43;101294.09;20905659;28;20063;-77
2022/08/02 10:55:26;;;;;;;1.30;0.82;;;;;;;19.70;84.65;101304.59;20908744;28;20067;-76
2022/08/02 11:05:29;;;;;;;3.65;1.65;;;;;;;19.73;84.93;101290.81;20913672;28;20139;-75
2022/08/02 11:16:01;;;;;;;1.77;1.08;;;;;;;19.76;85.05;101277.03;20939168;28;20143;-75
2022/08/02 11:26:29;;;;;;;2.33;1.10;;;;;;;19.79;85.50;101274.03;20928862;28;20052;-75
2022/08/02 11:36:31;;;;;;;1.83;1.30;;;;;;;19.81;85.64;101273.91;20924473;28;20037;-76
2022/08/02 11:46:32;;;;;;;2.50;1.08;;;;;;;19.76;85.62;101271.63;20924528;28;20059;-76
2022/08/02 11:56:34;;;;;;;1.50;1.30;;;;;;;19.83;85.79;101278.19;20917004;28;20563;-76
2022/08/02 12:06:36;;;;;;;1.42;1.13;;;;;;;19.82;85.79;101271.06;20907323;28;20127;-75
2022/08/02 12:26:59;;;;;;;1.95;1.20;;;;;;;19.80;86.41;101278.47;20914457;28;20057;-75
2022/08/02 12:37:05;;;;;;;3.15;1.48;;;;;;;19.77;86.43;101269.78;20912617;28;20398;-76
2022/08/02 12:47:10;;;;;;;1.58;1.20;;;;;;;19.78;86.46;101275.03;20906218;28;20139;-76
2022/08/02 12:57:14;;;;;;;1.10;1.00;;;;;;;19.64;86.49;101248.44;20904997;28;20072;-76
2022/08/02 13:07:15;;;;;;;1.73;1.10;;;;;;;19.79;86.57;101284.03;20902180;28;20052;-76
2022/08/02 13:17:17;;;;;;;2.67;1.30;;;;;;;19.78;87.13;101269.63;20896391;28;20045;-75
2022/08/02 13:27:19;;;;;;;2.17;1.30;;;;;;;19.78;87.17;101258.84;20899401;28;20045;-75
2022/08/02 13:37:22;;;;;;;1.85;1.45;;;;;;;19.80;88.19;101273.06;20881560;28;20044;-75
2022/08/02 13:47:23;;;;;;;1.80;1.30;;;;;;;19.82;88.83;101265.66;20883410;28;20078;-76
2022/08/02 13:57:37;;;;;;;1.90;1.02;;;;;;;19.84;89.34;101246.63;20894309;28;20505;-75
2022/08/02 14:07:38;;;;;;;2.25;1.50;;;;;;;19.86;89.56;101244.63;20903143;28;20051;-75
2022/08/02 14:17:40;;;;;;;2.88;1.38;;;;;;;19.87;90.28;101230.13;20896233;28;20049;-76
2022/08/02 14:27:41;;;;;;;2.00;1.55;;;;;;;19.88;90.62;101230.97;20886563;28;20091;-76
2022/08/02 14:37:43;;;;;;;1.98;1.40;;;;;;;19.83;90.97;101207.94;20865435;28;20712;-75
2022/08/02 14:47:44;;;;;;;4.63;1.80;;;;;;;19.90;91.58;101215.50;20879299;28;20134;-76
2022/08/02 14:57:46;;;;;;;3.15;1.27;;;;;;;19.86;91.64;101206.81;20894061;28;20047;-76
2022/08/02 15:07:48;;;;;;;2.72;1.55;;;;;;;19.79;91.59;101184.91;20882818;28;20077;-76
2022/08/02 15:17:50;;;;;;;2.72;1.30;;;;;;;19.78;92.05;101166.97;20893872;28;20044;-77
2022/08/02 15:27:52;;;;;;;2.67;1.83;;;;;;;19.77;92.53;101159.03;20892887;28;20060;-77
2022/08/02 15:37:54;;;;;;;2.28;1.67;;;;;;;19.76;92.70;101152.78;20881769;28;20134;-79
2022/08/02 15:47:55;;;;;;;2.53;1.70;;;;;;;19.62;93.05;101139.69;20892795;28;22199;-77
2022/08/02 15:57:57;;;;;;;2.17;1.60;;;;;;;19.73;93.36;101150.34;20881059;28;20044;-76
2022/08/02 16:07:59;;;;;;;1.60;1.50;;;;;;;19.73;93.54;101141.41;20884558;28;20053;-75
2022/08/02 16:18:00;;;;;;;2.13;1.60;;;;;;;19.73;93.57;101142.25;20892932;28;20066;-76
2022/08/02 16:28:02;;;;;;;1.90;1.70;;;;;;;19.60;93.57;101110.13;20907102;28;20051;-76
2022/08/02 16:38:08;;;;;;;1.88;1.77;;;;;;;19.62;94.12;101118.09;20871669;28;20053;-76
2022/08/02 16:48:09;;;;;;;2.42;1.90;;;;;;;19.73;94.29;101142.25;20886498;28;20073;-77
2022/08/02 16:58:11;;;;;;;1.95;1.75;;;;;;;19.59;94.63;101115.69;20886285;28;20612;-75
2022/08/02 17:08:15;;;;;;;3.23;1.70;;;;;;;19.73;95.48;101125.22;20880768;28;20056;-75
2022/08/02 17:18:18;;;;;;;1.83;1.70;;;;;;;19.54;95.12;101111.56;20879604;28;20759;-75
2022/08/02 17:28:26;;;;;;;1.95;1.70;;;;;;;19.70;95.31;101131.72;20890111;28;20124;-75
2022/08/02 17:38:33;;;;;;;4.43;2.10;;;;;;;19.72;99.41;101145.94;20940488;28;20063;-75
2022/08/02 17:59:17;;;;;;;2.20;2.00;;;;;;;19.77;100.00;101150.94;20954069;28;20493;-75
2022/08/02 18:09:21;;;;;;;3.53;1.80;;;;;;;19.74;100.00;101154.75;20943469;28;20045;-76
2022/08/02 18:19:23;;;;;;;3.67;1.85;;;;;;;19.72;99.81;101162.16;20959138;28;20401;-75
2022/08/02 18:29:43;;;;;;;2.55;1.75;;;;;;;19.54;99.63;101143.97;21021507;28;20036;-75
2022/08/02 18:39:48;;;;;;;2.78;2.22;;;;;;;19.68;99.09;101167.00;21040780;28;20052;-75
2022/08/02 18:49:52;;;;;;;1.87;1.50;;;;;;;19.67;98.88;101169.84;21041787;28;20051;-75
2022/08/02 18:59:56;;;;;;;2.65;1.60;;;;;;;19.65;98.78;101171.81;21047576;28;20040;-75
2022/08/02 19:09:58;;;;;;;1.75;1.55;;;;;;;19.65;98.78;101188.03;21041878;28;20094;-76
2022/08/02 19:19:59;;;;;;;2.03;1.40;;;;;;;19.42;98.42;101145.06;21038015;28;20052;-76
2022/08/02 19:30:04;;;;;;;2.00;1.55;;;;;;;19.62;98.50;101177.50;21028897;28;20050;-77
2022/08/02 19:40:12;;;;;;;2.72;1.60;;;;;;;19.50;98.67;101164.16;21055536;28;20044;-75
2022/08/02 19:50:16;;;;;;;1.92;1.52;;;;;;;19.52;98.81;101185.59;21054125;28;20040;-75
2022/08/02 20:00:26;;;;;;;1.73;1.60;;;;;;;19.60;98.90;101188.44;21052161;28;20152;-75
2022/08/02 20:10:28;;;;;;;5.43;2.72;;;;;;;19.42;98.97;101169.38;21000597;28;20068;-75
2022/08/02 20:20:30;;;;;;;3.10;1.80;;;;;;;19.52;98.73;101186.47;20962681;28;20048;-76
2022/08/02 20:30:32;;;;;;;1.83;1.65;;;;;;;19.59;99.06;101191.28;21026016;28;20109;-76
2022/08/02 20:40:34;;;;;;;3.15;1.73;;;;;;;19.58;99.05;101192.28;21049886;28;20051;-76
2022/08/02 20:50:48;;;;;;;1.50;1.40;;;;;;;19.58;99.26;101192.28;21047810;28;20408;-75
2022/08/02 21:00:52;;;;;;;2.15;1.55;;;;;;;19.39;99.44;101169.66;21047603;28;20048;-75
2022/08/02 21:10:54;;;;;;;1.75;1.65;;;;;;;19.56;99.50;101200.53;21045132;28;20054;-75
2022/08/02 21:20:57;;;;;;;2.47;1.67;;;;;;;19.55;99.64;101183.47;21032451;28;20104;-76
2022/08/02 21:31:01;;;;;;;1.98;1.77;;;;;;;19.55;99.71;101183.47;21052390;28;20542;-76
2022/08/02 21:41:04;;;;;;;2.88;1.63;;;;;;;19.54;100.00;101180.91;21046014;28;20048;-75
2022/08/02 21:51:12;;;;;;;2.30;1.48;;;;;;;19.42;100.00;101166.66;21045249;28;20811;-75
2022/08/02 22:01:16;;;;;;;2.17;1.60;;;;;;;19.52;100.00;101178.34;21041720;28;20039;-75
2022/08/02 22:11:25;;;;;;;3.35;1.73;;;;;;;19.53;100.00;101168.41;21041280;28;20381;-75
2022/08/02 22:21:26;;;;;;;2.10;1.33;;;;;;;19.53;100.00;101168.41;21023756;28;20043;-75
2022/08/02 22:31:47;;;;;;;2.28;1.60;;;;;;;19.52;100.00;101172.09;21041516;28;20055;-75
2022/08/02 22:41:49;;;;;;;1.75;1.52;;;;;;;19.52;100.00;101177.50;21041024;28;20135;-75
2022/08/02 22:52:07;;;;;;;2.80;1.70;;;;;;;19.47;100.00;101169.84;21042071;28;20454;-75
2022/08/02 23:02:11;;;;;;;1.95;1.42;;;;;;;19.51;100.00;101173.09;21030050;28;20135;-75
2022/08/02 23:12:17;;;;;;;2.95;1.80;;;;;;;19.49;100.00;101178.66;21047838;28;20050;-76
2022/08/02 23:22:21;;;;;;;2.50;1.40;;;;;;;19.43;100.00;101171.06;21024276;28;20044;-76
2022/08/02 23:32:30;;;;;;;2.63;1.77;;;;;;;19.49;100.00;101178.66;21069432;28;20074;-75
2022/08/02 23:42:32;;;;;;;1.95;1.50;;;;;;;19.43;100.00;101173.78;21052860;28;20074;-75
2022/08/02 23:52:33;;;;;;;1.75;1.60;;;;;;;19.48;100.00;101176.94;21052317;28;20304;-76
